sensor_id;sensor_type;location;lat;lon;timestamp;temperature;humidity
16958;DHT22;8595;52.542;11.974;2024-02-21T00:01:51;9.20;99.90
16958;DHT22;8595;52.542;11.974;2024-02-21T00:04:17;9.10;99.90
16958;DHT22;8595;52.542;11.974;2024-02-21T00:06:44;9.20;99.90
16958;DHT22;8595;52.542;11.974;2024-02-21T00:09:11;9.10;99.90
16958;DHT22;8595;52.542;11.974;2024-02-21T00:11:38;9.20;99.90
16958;DHT22;8595;52.542;11.974;2024-02-21T00:14:05;9.20;99.90
16958;DHT22;8595;52.542;11.974;2024-02-21T00:16:32;9.20;99.90
16958;DHT22;8595;52.542;11.974;2024-02-21T00:18:58;9.20;99.90
16958;DHT22;8595;52.542;11.974;2024-02-21T00:21:25;9.20;99.90
16958;DHT22;8595;52.542;11.974;2024-02-21T00:23:51;9.20;99.90
16958;DHT22;8595;52.542;11.974;2024-02-21T00:26:18;9.20;99.90
16958;DHT22;8595;52.542;11.974;2024-02-21T00:28:46;9.20;99.90
16958;DHT22;8595;52.542;11.974;2024-02-21T00:31:12;9.10;99.90
16958;DHT22;8595;52.542;11.974;2024-02-21T00:33:39;9.10;99.90
16958;DHT22;8595;52.542;11.974;2024-02-21T00:36:06;8.90;99.90
16958;DHT22;8595;52.542;11.974;2024-02-21T00:38:32;8.90;99.90
16958;DHT22;8595;52.542;11.974;2024-02-21T00:40:59;8.80;99.90
16958;DHT22;8595;52.542;11.974;2024-02-21T00:43:26;8.70;99.90
16958;DHT22;8595;52.542;11.974;2024-02-21T00:45:54;8.70;99.90
16958;DHT22;8595;52.542;11.974;2024-02-21T00:48:20;8.70;99.90
16958;DHT22;8595;52.542;11.974;2024-02-21T00:50:47;8.60;99.90
16958;DHT22;8595;52.542;11.974;2024-02-21T00:53:14;8.60;99.90
16958;DHT22;8595;52.542;11.974;2024-02-21T00:55:41;8.50;99.90
16958;DHT22;8595;52.542;11.974;2024-02-21T00:58:08;8.50;99.90
16958;DHT22;8595;52.542;11.974;2024-02-21T01:00:36;8.50;99.90
16958;DHT22;8595;52.542;11.974;2024-02-21T01:03:04;8.40;99.90
16958;DHT22;8595;52.542;11.974;2024-02-21T01:05:31;8.40;99.90
16958;DHT22;8595;52.542;11.974;2024-02-21T01:07:57;8.40;99.90
16958;DHT22;8595;52.542;11.974;2024-02-21T01:10:24;8.50;99.90
16958;DHT22;8595;52.542;11.974;2024-02-21T01:12:51;8.40;99.90
16958;DHT22;8595;52.542;11.974;2024-02-21T01:15:18;8.40;99.90
16958;DHT22;8595;52.542;11.974;2024-02-21T01:17:44;8.30;99.90
16958;DHT22;8595;52.542;11.974;2024-02-21T01:20:13;8.40;99.90
16958;DHT22;8595;52.542;11.974;2024-02-21T01:22:39;8.40;99.90
16958;DHT22;8595;52.542;11.974;2024-02-21T01:25:07;8.30;99.90
16958;DHT22;8595;52.542;11.974;2024-02-21T01:27:34;8.30;99.90
16958;DHT22;8595;52.542;11.974;2024-02-21T01:30:00;8.30;99.90
16958;DHT22;8595;52.542;11.974;2024-02-21T01:32:27;8.30;99.90
16958;DHT22;8595;52.542;11.974;2024-02-21T01:34:54;8.20;99.90
16958;DHT22;8595;52.542;11.974;2024-02-21T01:37:21;8.20;99.90
16958;DHT22;8595;52.542;11.974;2024-02-21T01:39:48;8.20;99.90
16958;DHT22;8595;52.542;11.974;2024-02-21T01:42:16;8.10;99.90
16958;DHT22;8595;52.542;11.974;2024-02-21T01:44:42;8.20;99.90
16958;DHT22;8595;52.542;11.974;2024-02-21T01:47:10;8.10;99.90
16958;DHT22;8595;52.542;11.974;2024-02-21T01:49:39;8.20;99.90
16958;DHT22;8595;52.542;11.974;2024-02-21T01:52:05;8.10;99.90
16958;DHT22;8595;52.542;11.974;2024-02-21T01:54:34;8.10;99.90
16958;DHT22;8595;52.542;11.974;2024-02-21T01:57:01;8.20;99.90
16958;DHT22;8595;52.542;11.974;2024-02-21T01:59:28;8.10;99.90
16958;DHT22;8595;52.542;11.974;2024-02-21T02:01:55;8.10;99.90
16958;DHT22;8595;52.542;11.974;2024-02-21T02:04:23;8.00;99.90
16958;DHT22;8595;52.542;11.974;2024-02-21T02:06:50;8.10;99.90
16958;DHT22;8595;52.542;11.974;2024-02-21T02:09:18;8.10;99.90
16958;DHT22;8595;52.542;11.974;2024-02-21T02:11:46;8.10;99.90
16958;DHT22;8595;52.542;11.974;2024-02-21T02:14:13;8.10;99.90
16958;DHT22;8595;52.542;11.974;2024-02-21T02:16:39;8.10;99.90
16958;DHT22;8595;52.542;11.974;2024-02-21T02:19:06;8.10;99.90
16958;DHT22;8595;52.542;11.974;2024-02-21T02:21:39;8.10;99.90
16958;DHT22;8595;52.542;11.974;2024-02-21T02:24:10;8.20;99.90
16958;DHT22;8595;52.542;11.974;2024-02-21T02:26:37;8.10;99.90
16958;DHT22;8595;52.542;11.974;2024-02-21T02:29:04;8.10;99.90
16958;DHT22;8595;52.542;11.974;2024-02-21T02:31:30;8.20;99.90
16958;DHT22;8595;52.542;11.974;2024-02-21T02:33:57;8.20;99.90
16958;DHT22;8595;52.542;11.974;2024-02-21T02:36:23;8.20;99.90
16958;DHT22;8595;52.542;11.974;2024-02-21T02:38:50;8.20;99.90
16958;DHT22;8595;52.542;11.974;2024-02-21T02:41:18;8.20;99.90
16958;DHT22;8595;52.542;11.974;2024-02-21T02:43:45;8.30;99.90
16958;DHT22;8595;52.542;11.974;2024-02-21T02:46:12;8.20;99.90
16958;DHT22;8595;52.542;11.974;2024-02-21T02:48:38;8.20;99.90
16958;DHT22;8595;52.542;11.974;2024-02-21T02:51:05;8.20;99.90
16958;DHT22;8595;52.542;11.974;2024-02-21T02:53:31;8.30;99.90
16958;DHT22;8595;52.542;11.974;2024-02-21T02:55:58;8.20;99.90
16958;DHT22;8595;52.542;11.974;2024-02-21T02:58:26;8.20;99.90
16958;DHT22;8595;52.542;11.974;2024-02-21T03:00:53;8.20;99.90
16958;DHT22;8595;52.542;11.974;2024-02-21T03:03:19;8.20;99.90
16958;DHT22;8595;52.542;11.974;2024-02-21T03:05:46;8.30;99.90
16958;DHT22;8595;52.542;11.974;2024-02-21T03:08:13;8.30;99.90
16958;DHT22;8595;52.542;11.974;2024-02-21T03:10:40;8.40;99.90
16958;DHT22;8595;52.542;11.974;2024-02-21T03:13:06;8.30;99.90
16958;DHT22;8595;52.542;11.974;2024-02-21T03:15:34;8.30;99.90
16958;DHT22;8595;52.542;11.974;2024-02-21T03:18:01;8.30;99.90
16958;DHT22;8595;52.542;11.974;2024-02-21T03:20:27;8.30;99.90
16958;DHT22;8595;52.542;11.974;2024-02-21T03:22:54;8.30;99.90
16958;DHT22;8595;52.542;11.974;2024-02-21T03:25:21;8.30;99.90
16958;DHT22;8595;52.542;11.974;2024-02-21T03:27:47;8.30;99.90
16958;DHT22;8595;52.542;11.974;2024-02-21T03:30:14;8.30;99.90
16958;DHT22;8595;52.542;11.974;2024-02-21T03:32:42;8.40;99.90
16958;DHT22;8595;52.542;11.974;2024-02-21T03:35:09;8.40;99.90
16958;DHT22;8595;52.542;11.974;2024-02-21T03:37:36;8.40;99.90
16958;DHT22;8595;52.542;11.974;2024-02-21T03:40:07;8.30;99.90
16958;DHT22;8595;52.542;11.974;2024-02-21T03:42:33;8.30;99.90
16958;DHT22;8595;52.542;11.974;2024-02-21T03:45:00;8.40;99.90
16958;DHT22;8595;52.542;11.974;2024-02-21T03:47:27;8.40;99.90
16958;DHT22;8595;52.542;11.974;2024-02-21T03:49:55;8.40;99.90
16958;DHT22;8595;52.542;11.974;2024-02-21T03:52:22;8.40;99.90
16958;DHT22;8595;52.542;11.974;2024-02-21T03:54:48;8.40;99.90
16958;DHT22;8595;52.542;11.974;2024-02-21T03:57:15;8.30;99.90
16958;DHT22;8595;52.542;11.974;2024-02-21T03:59:43;8.40;99.90
16958;DHT22;8595;52.542;11.974;2024-02-21T04:02:09;8.30;99.90
16958;DHT22;8595;52.542;11.974;2024-02-21T04:04:36;8.30;99.90
16958;DHT22;8595;52.542;11.974;2024-02-21T04:07:04;8.30;99.90
16958;DHT22;8595;52.542;11.974;2024-02-21T04:09:32;8.40;99.90
16958;DHT22;8595;52.542;11.974;2024-02-21T04:12:00;8.30;99.90
16958;DHT22;8595;52.542;11.974;2024-02-21T04:14:26;8.40;99.90
16958;DHT22;8595;52.542;11.974;2024-02-21T04:16:53;8.40;99.90
16958;DHT22;8595;52.542;11.974;2024-02-21T04:19:20;8.40;99.90
16958;DHT22;8595;52.542;11.974;2024-02-21T04:21:46;8.40;99.90
16958;DHT22;8595;52.542;11.974;2024-02-21T04:24:14;8.40;99.90
16958;DHT22;8595;52.542;11.974;2024-02-21T04:26:41;8.40;99.90
16958;DHT22;8595;52.542;11.974;2024-02-21T04:29:09;8.50;99.90
16958;DHT22;8595;52.542;11.974;2024-02-21T04:31:35;8.40;99.90
16958;DHT22;8595;52.542;11.974;2024-02-21T04:34:02;8.50;99.90
16958;DHT22;8595;52.542;11.974;2024-02-21T04:36:29;8.40;99.90
16958;DHT22;8595;52.542;11.974;2024-02-21T04:38:55;8.50;99.90
16958;DHT22;8595;52.542;11.974;2024-02-21T04:41:23;8.50;99.90
16958;DHT22;8595;52.542;11.974;2024-02-21T04:43:50;8.50;99.90
16958;DHT22;8595;52.542;11.974;2024-02-21T04:46:17;8.60;99.90
16958;DHT22;8595;52.542;11.974;2024-02-21T04:48:43;8.60;99.90
16958;DHT22;8595;52.542;11.974;2024-02-21T04:51:11;8.50;99.90
16958;DHT22;8595;52.542;11.974;2024-02-21T04:53:38;8.60;99.90
16958;DHT22;8595;52.542;11.974;2024-02-21T04:56:06;8.60;99.90
16958;DHT22;8595;52.542;11.974;2024-02-21T04:58:37;8.50;99.90
16958;DHT22;8595;52.542;11.974;2024-02-21T05:01:04;8.50;99.90
16958;DHT22;8595;52.542;11.974;2024-02-21T05:03:31;8.50;99.90
16958;DHT22;8595;52.542;11.974;2024-02-21T05:05:58;8.50;99.90
16958;DHT22;8595;52.542;11.974;2024-02-21T05:08:25;8.60;99.90
16958;DHT22;8595;52.542;11.974;2024-02-21T05:10:52;8.60;99.90
16958;DHT22;8595;52.542;11.974;2024-02-21T05:13:18;8.60;99.90
16958;DHT22;8595;52.542;11.974;2024-02-21T05:15:47;8.60;99.90
16958;DHT22;8595;52.542;11.974;2024-02-21T05:18:13;8.60;99.90
16958;DHT22;8595;52.542;11.974;2024-02-21T05:20:40;8.60;99.90
16958;DHT22;8595;52.542;11.974;2024-02-21T05:23:06;8.60;99.90
16958;DHT22;8595;52.542;11.974;2024-02-21T05:25:33;8.60;99.90
16958;DHT22;8595;52.542;11.974;2024-02-21T05:28:00;8.70;99.90
16958;DHT22;8595;52.542;11.974;2024-02-21T05:30:28;8.60;99.90
16958;DHT22;8595;52.542;11.974;2024-02-21T05:32:56;8.60;99.90
16958;DHT22;8595;52.542;11.974;2024-02-21T05:35:25;8.60;99.90
16958;DHT22;8595;52.542;11.974;2024-02-21T05:37:52;8.60;99.90
16958;DHT22;8595;52.542;11.974;2024-02-21T05:40:19;8.60;99.90
16958;DHT22;8595;52.542;11.974;2024-02-21T05:42:46;8.70;99.90
16958;DHT22;8595;52.542;11.974;2024-02-21T05:45:12;8.70;99.90
16958;DHT22;8595;52.542;11.974;2024-02-21T05:47:40;8.70;99.90
16958;DHT22;8595;52.542;11.974;2024-02-21T05:50:09;8.70;99.90
16958;DHT22;8595;52.542;11.974;2024-02-21T05:52:36;8.80;99.90
16958;DHT22;8595;52.542;11.974;2024-02-21T05:55:03;8.70;99.90
16958;DHT22;8595;52.542;11.974;2024-02-21T05:57:30;8.70;99.90
16958;DHT22;8595;52.542;11.974;2024-02-21T05:59:56;8.70;99.90
16958;DHT22;8595;52.542;11.974;2024-02-21T06:02:23;8.70;99.90
16958;DHT22;8595;52.542;11.974;2024-02-21T06:04:50;8.80;99.90
16958;DHT22;8595;52.542;11.974;2024-02-21T06:07:17;8.70;99.90
16958;DHT22;8595;52.542;11.974;2024-02-21T06:09:44;8.70;99.90
16958;DHT22;8595;52.542;11.974;2024-02-21T06:12:11;8.70;99.90
16958;DHT22;8595;52.542;11.974;2024-02-21T06:14:37;8.70;99.90
16958;DHT22;8595;52.542;11.974;2024-02-21T06:17:04;8.80;99.90
16958;DHT22;8595;52.542;11.974;2024-02-21T06:19:31;8.80;99.90
16958;DHT22;8595;52.542;11.974;2024-02-21T06:21:57;8.80;99.90
16958;DHT22;8595;52.542;11.974;2024-02-21T06:24:25;8.80;99.90
16958;DHT22;8595;52.542;11.974;2024-02-21T06:26:52;8.70;99.90
16958;DHT22;8595;52.542;11.974;2024-02-21T06:29:18;8.80;99.90
16958;DHT22;8595;52.542;11.974;2024-02-21T06:31:45;8.80;99.90
16958;DHT22;8595;52.542;11.974;2024-02-21T06:34:11;8.80;99.90
16958;DHT22;8595;52.542;11.974;2024-02-21T06:36:38;8.90;99.90
16958;DHT22;8595;52.542;11.974;2024-02-21T06:39:05;8.90;99.90
16958;DHT22;8595;52.542;11.974;2024-02-21T06:41:34;8.90;99.90
16958;DHT22;8595;52.542;11.974;2024-02-21T06:44:01;8.90;99.90
16958;DHT22;8595;52.542;11.974;2024-02-21T06:46:28;8.90;99.90
16958;DHT22;8595;52.542;11.974;2024-02-21T06:48:55;8.90;99.90
16958;DHT22;8595;52.542;11.974;2024-02-21T06:51:22;8.80;99.90
16958;DHT22;8595;52.542;11.974;2024-02-21T06:53:50;8.80;99.90
16958;DHT22;8595;52.542;11.974;2024-02-21T06:56:16;8.90;99.90
16958;DHT22;8595;52.542;11.974;2024-02-21T06:58:45;8.90;99.90
16958;DHT22;8595;52.542;11.974;2024-02-21T07:01:11;8.90;99.90
16958;DHT22;8595;52.542;11.974;2024-02-21T07:03:38;9.00;99.90
16958;DHT22;8595;52.542;11.974;2024-02-21T07:06:04;9.00;99.90
16958;DHT22;8595;52.542;11.974;2024-02-21T07:08:31;8.90;99.90
16958;DHT22;8595;52.542;11.974;2024-02-21T07:10:58;9.00;99.90
16958;DHT22;8595;52.542;11.974;2024-02-21T07:13:24;9.00;99.90
16958;DHT22;8595;52.542;11.974;2024-02-21T07:15:52;9.00;99.90
16958;DHT22;8595;52.542;11.974;2024-02-21T07:18:19;9.10;99.90
16958;DHT22;8595;52.542;11.974;2024-02-21T07:20:45;9.10;99.90
16958;DHT22;8595;52.542;11.974;2024-02-21T07:23:12;9.10;99.90
16958;DHT22;8595;52.542;11.974;2024-02-21T07:25:39;9.10;99.90
16958;DHT22;8595;52.542;11.974;2024-02-21T07:28:06;9.10;99.90
16958;DHT22;8595;52.542;11.974;2024-02-21T07:30:33;9.20;99.90
16958;DHT22;8595;52.542;11.974;2024-02-21T07:33:01;9.20;99.90
16958;DHT22;8595;52.542;11.974;2024-02-21T07:35:28;9.20;99.90
16958;DHT22;8595;52.542;11.974;2024-02-21T07:37:55;9.30;99.90
16958;DHT22;8595;52.542;11.974;2024-02-21T07:40:21;9.30;99.90
16958;DHT22;8595;52.542;11.974;2024-02-21T07:42:48;9.20;99.90
16958;DHT22;8595;52.542;11.974;2024-02-21T07:45:14;9.40;99.90
16958;DHT22;8595;52.542;11.974;2024-02-21T07:47:41;9.30;99.90
16958;DHT22;8595;52.542;11.974;2024-02-21T07:50:10;9.30;99.90
16958;DHT22;8595;52.542;11.974;2024-02-21T07:52:36;9.40;99.90
16958;DHT22;8595;52.542;11.974;2024-02-21T07:55:03;9.40;99.90
16958;DHT22;8595;52.542;11.974;2024-02-21T07:57:30;9.50;99.90
16958;DHT22;8595;52.542;11.974;2024-02-21T07:59:56;9.50;99.90
16958;DHT22;8595;52.542;11.974;2024-02-21T08:02:23;9.50;99.90
16958;DHT22;8595;52.542;11.974;2024-02-21T08:04:50;9.50;99.90
16958;DHT22;8595;52.542;11.974;2024-02-21T08:07:18;9.60;99.90
16958;DHT22;8595;52.542;11.974;2024-02-21T08:09:44;9.50;99.90
16958;DHT22;8595;52.542;11.974;2024-02-21T08:12:11;9.60;99.90
16958;DHT22;8595;52.542;11.974;2024-02-21T08:14:37;9.60;99.90
16958;DHT22;8595;52.542;11.974;2024-02-21T08:17:04;9.60;99.90
16958;DHT22;8595;52.542;11.974;2024-02-21T08:19:31;9.60;99.90
16958;DHT22;8595;52.542;11.974;2024-02-21T08:21:57;9.60;99.90
16958;DHT22;8595;52.542;11.974;2024-02-21T08:24:25;9.60;99.90
16958;DHT22;8595;52.542;11.974;2024-02-21T08:26:52;9.60;99.90
16958;DHT22;8595;52.542;11.974;2024-02-21T08:29:19;9.70;99.90
16958;DHT22;8595;52.542;11.974;2024-02-21T08:31:45;9.70;99.90
16958;DHT22;8595;52.542;11.974;2024-02-21T08:34:12;9.70;99.90
16958;DHT22;8595;52.542;11.974;2024-02-21T08:36:38;9.70;99.90
16958;DHT22;8595;52.542;11.974;2024-02-21T08:39:05;9.70;99.90
16958;DHT22;8595;52.542;11.974;2024-02-21T08:41:34;9.60;99.90
16958;DHT22;8595;52.542;11.974;2024-02-21T08:44:00;9.60;99.90
16958;DHT22;8595;52.542;11.974;2024-02-21T08:46:31;9.60;99.90
16958;DHT22;8595;52.542;11.974;2024-02-21T08:48:58;9.60;99.90
16958;DHT22;8595;52.542;11.974;2024-02-21T08:51:25;9.50;99.90
16958;DHT22;8595;52.542;11.974;2024-02-21T08:53:52;9.50;99.90
16958;DHT22;8595;52.542;11.974;2024-02-21T08:56:19;9.50;99.90
16958;DHT22;8595;52.542;11.974;2024-02-21T08:58:47;9.40;99.90
16958;DHT22;8595;52.542;11.974;2024-02-21T09:01:13;9.40;99.90
16958;DHT22;8595;52.542;11.974;2024-02-21T09:03:40;9.30;99.90
16958;DHT22;8595;52.542;11.974;2024-02-21T09:06:07;9.20;99.90
16958;DHT22;8595;52.542;11.974;2024-02-21T09:08:34;9.30;99.90
16958;DHT22;8595;52.542;11.974;2024-02-21T09:11:01;9.30;99.90
16958;DHT22;8595;52.542;11.974;2024-02-21T09:13:28;9.30;99.90
16958;DHT22;8595;52.542;11.974;2024-02-21T09:15:56;9.20;99.90
16958;DHT22;8595;52.542;11.974;2024-02-21T09:18:23;9.30;99.90
16958;DHT22;8595;52.542;11.974;2024-02-21T09:20:50;9.30;99.90
16958;DHT22;8595;52.542;11.974;2024-02-21T09:23:16;9.30;99.90
16958;DHT22;8595;52.542;11.974;2024-02-21T09:25:45;9.30;99.90
16958;DHT22;8595;52.542;11.974;2024-02-21T09:28:12;9.20;99.90
16958;DHT22;8595;52.542;11.974;2024-02-21T09:30:39;9.20;99.90
16958;DHT22;8595;52.542;11.974;2024-02-21T09:33:07;9.10;99.90
16958;DHT22;8595;52.542;11.974;2024-02-21T09:35:34;9.00;99.90
16958;DHT22;8595;52.542;11.974;2024-02-21T09:38:01;9.20;99.90
16958;DHT22;8595;52.542;11.974;2024-02-21T09:40:29;9.20;99.90
16958;DHT22;8595;52.542;11.974;2024-02-21T09:43:02;9.20;99.90
16958;DHT22;8595;52.542;11.974;2024-02-21T09:45:30;9.40;99.90
16958;DHT22;8595;52.542;11.974;2024-02-21T09:48:22;9.30;99.90
16958;DHT22;8595;52.542;11.974;2024-02-21T09:50:53;9.40;99.90
16958;DHT22;8595;52.542;11.974;2024-02-21T09:53:22;9.40;99.90
16958;DHT22;8595;52.542;11.974;2024-02-21T09:55:50;9.50;99.90
16958;DHT22;8595;52.542;11.974;2024-02-21T09:58:18;9.60;99.90
16958;DHT22;8595;52.542;11.974;2024-02-21T10:00:45;9.60;99.90
16958;DHT22;8595;52.542;11.974;2024-02-21T10:03:13;9.70;99.90
16958;DHT22;8595;52.542;11.974;2024-02-21T10:05:47;9.70;99.90
16958;DHT22;8595;52.542;11.974;2024-02-21T10:08:14;9.60;99.90
16958;DHT22;8595;52.542;11.974;2024-02-21T10:10:42;9.60;99.90
16958;DHT22;8595;52.542;11.974;2024-02-21T10:13:10;9.50;99.90
16958;DHT22;8595;52.542;11.974;2024-02-21T10:15:37;9.60;99.90
16958;DHT22;8595;52.542;11.974;2024-02-21T10:18:04;9.50;99.90
16958;DHT22;8595;52.542;11.974;2024-02-21T10:20:33;9.60;99.90
16958;DHT22;8595;52.542;11.974;2024-02-21T10:23:01;9.60;99.90
16958;DHT22;8595;52.542;11.974;2024-02-21T10:25:28;9.60;99.90
16958;DHT22;8595;52.542;11.974;2024-02-21T10:27:56;9.70;99.90
16958;DHT22;8595;52.542;11.974;2024-02-21T10:30:23;9.90;99.90
16958;DHT22;8595;52.542;11.974;2024-02-21T10:32:50;9.90;99.90
16958;DHT22;8595;52.542;11.974;2024-02-21T10:35:43;10.00;99.90
16958;DHT22;8595;52.542;11.974;2024-02-21T10:38:10;10.10;99.90
16958;DHT22;8595;52.542;11.974;2024-02-21T10:40:37;10.10;99.90
16958;DHT22;8595;52.542;11.974;2024-02-21T10:43:06;10.20;99.90
16958;DHT22;8595;52.542;11.974;2024-02-21T10:45:37;10.30;99.90
16958;DHT22;8595;52.542;11.974;2024-02-21T10:48:10;10.40;99.90
16958;DHT22;8595;52.542;11.974;2024-02-21T10:50:52;10.70;99.90
16958;DHT22;8595;52.542;11.974;2024-02-21T10:53:28;10.90;99.90
16958;DHT22;8595;52.542;11.974;2024-02-21T10:55:58;11.10;99.90
16958;DHT22;8595;52.542;11.974;2024-02-21T10:58:29;11.30;99.90
16958;DHT22;8595;52.542;11.974;2024-02-21T11:00:56;11.40;99.90
16958;DHT22;8595;52.542;11.974;2024-02-21T11:03:23;11.50;99.90
16958;DHT22;8595;52.542;11.974;2024-02-21T11:05:52;11.50;99.90
16958;DHT22;8595;52.542;11.974;2024-02-21T11:08:19;11.50;99.90
16958;DHT22;8595;52.542;11.974;2024-02-21T11:10:46;11.30;99.90
16958;DHT22;8595;52.542;11.974;2024-02-21T11:13:13;11.30;99.90
16958;DHT22;8595;52.542;11.974;2024-02-21T11:15:40;11.10;99.90
16958;DHT22;8595;52.542;11.974;2024-02-21T11:18:06;11.00;99.90
16958;DHT22;8595;52.542;11.974;2024-02-21T11:20:33;11.00;99.90
16958;DHT22;8595;52.542;11.974;2024-02-21T11:23:02;10.90;99.90
16958;DHT22;8595;52.542;11.974;2024-02-21T11:25:29;11.00;99.90
16958;DHT22;8595;52.542;11.974;2024-02-21T11:28:00;11.00;99.90
16958;DHT22;8595;52.542;11.974;2024-02-21T11:30:27;11.20;99.90
16958;DHT22;8595;52.542;11.974;2024-02-21T11:33:00;11.20;99.90
16958;DHT22;8595;52.542;11.974;2024-02-21T11:35:31;11.20;99.90
16958;DHT22;8595;52.542;11.974;2024-02-21T11:38:09;11.10;99.90
16958;DHT22;8595;52.542;11.974;2024-02-21T11:40:39;11.40;99.90
16958;DHT22;8595;52.542;11.974;2024-02-21T11:43:07;11.40;99.90
16958;DHT22;8595;52.542;11.974;2024-02-21T11:45:33;11.40;99.90
16958;DHT22;8595;52.542;11.974;2024-02-21T11:48:00;11.40;99.90
16958;DHT22;8595;52.542;11.974;2024-02-21T11:50:29;11.40;99.90
16958;DHT22;8595;52.542;11.974;2024-02-21T11:52:55;11.40;99.90
16958;DHT22;8595;52.542;11.974;2024-02-21T11:55:23;11.30;99.90
16958;DHT22;8595;52.542;11.974;2024-02-21T11:57:50;11.40;99.90
16958;DHT22;8595;52.542;11.974;2024-02-21T12:00:18;11.30;99.90
16958;DHT22;8595;52.542;11.974;2024-02-21T12:02:46;11.50;99.90
16958;DHT22;8595;52.542;11.974;2024-02-21T12:05:13;11.50;99.90
16958;DHT22;8595;52.542;11.974;2024-02-21T12:07:40;11.50;99.90
16958;DHT22;8595;52.542;11.974;2024-02-21T12:10:08;11.60;99.90
16958;DHT22;8595;52.542;11.974;2024-02-21T12:12:38;11.70;99.90
16958;DHT22;8595;52.542;11.974;2024-02-21T12:15:05;11.90;99.90
16958;DHT22;8595;52.542;11.974;2024-02-21T12:17:32;12.00;99.90
16958;DHT22;8595;52.542;11.974;2024-02-21T12:20:00;12.20;99.90
16958;DHT22;8595;52.542;11.974;2024-02-21T12:22:28;12.40;99.90
16958;DHT22;8595;52.542;11.974;2024-02-21T12:24:58;12.50;99.90
16958;DHT22;8595;52.542;11.974;2024-02-21T12:27:25;12.40;99.90
16958;DHT22;8595;52.542;11.974;2024-02-21T12:29:53;12.50;99.90
16958;DHT22;8595;52.542;11.974;2024-02-21T12:32:21;12.50;99.90
16958;DHT22;8595;52.542;11.974;2024-02-21T12:34:48;12.60;99.90
16958;DHT22;8595;52.542;11.974;2024-02-21T12:37:14;12.60;99.90
16958;DHT22;8595;52.542;11.974;2024-02-21T12:39:41;12.80;99.90
16958;DHT22;8595;52.542;11.974;2024-02-21T12:42:10;12.90;99.90
16958;DHT22;8595;52.542;11.974;2024-02-21T12:44:37;12.80;99.90
16958;DHT22;8595;52.542;11.974;2024-02-21T12:47:05;12.60;99.90
16958;DHT22;8595;52.542;11.974;2024-02-21T12:49:33;12.60;99.90
16958;DHT22;8595;52.542;11.974;2024-02-21T12:52:00;12.70;99.90
16958;DHT22;8595;52.542;11.974;2024-02-21T12:54:27;12.70;99.90
16958;DHT22;8595;52.542;11.974;2024-02-21T12:56:55;12.70;99.90
16958;DHT22;8595;52.542;11.974;2024-02-21T12:59:24;12.80;99.90
16958;DHT22;8595;52.542;11.974;2024-02-21T13:01:51;12.80;99.90
16958;DHT22;8595;52.542;11.974;2024-02-21T13:04:19;12.50;99.90
16958;DHT22;8595;52.542;11.974;2024-02-21T13:06:47;12.50;99.90
16958;DHT22;8595;52.542;11.974;2024-02-21T13:09:13;12.40;99.90
16958;DHT22;8595;52.542;11.974;2024-02-21T13:11:40;12.40;99.90
16958;DHT22;8595;52.542;11.974;2024-02-21T13:14:07;12.20;99.90
16958;DHT22;8595;52.542;11.974;2024-02-21T13:16:34;12.10;99.90
16958;DHT22;8595;52.542;11.974;2024-02-21T13:19:04;12.20;99.90
16958;DHT22;8595;52.542;11.974;2024-02-21T13:21:32;12.20;99.90
16958;DHT22;8595;52.542;11.974;2024-02-21T13:23:59;12.20;99.90
16958;DHT22;8595;52.542;11.974;2024-02-21T13:26:25;12.30;99.90
16958;DHT22;8595;52.542;11.974;2024-02-21T13:28:52;12.20;99.90
16958;DHT22;8595;52.542;11.974;2024-02-21T13:31:19;12.10;99.90
16958;DHT22;8595;52.542;11.974;2024-02-21T13:33:46;12.00;99.90
16958;DHT22;8595;52.542;11.974;2024-02-21T13:36:12;12.00;99.90
16958;DHT22;8595;52.542;11.974;2024-02-21T13:38:40;11.80;99.90
16958;DHT22;8595;52.542;11.974;2024-02-21T13:41:07;11.80;99.90
16958;DHT22;8595;52.542;11.974;2024-02-21T13:43:34;11.80;99.90
16958;DHT22;8595;52.542;11.974;2024-02-21T13:46:02;11.80;99.90
16958;DHT22;8595;52.542;11.974;2024-02-21T13:48:30;11.70;99.90
16958;DHT22;8595;52.542;11.974;2024-02-21T13:50:58;11.80;99.90
16958;DHT22;8595;52.542;11.974;2024-02-21T13:53:27;11.80;99.90
16958;DHT22;8595;52.542;11.974;2024-02-21T13:55:55;11.70;99.90
16958;DHT22;8595;52.542;11.974;2024-02-21T13:58:22;11.70;99.90
16958;DHT22;8595;52.542;11.974;2024-02-21T14:00:49;11.70;99.90
16958;DHT22;8595;52.542;11.974;2024-02-21T14:03:16;11.70;99.90
16958;DHT22;8595;52.542;11.974;2024-02-21T14:05:43;11.60;99.90
16958;DHT22;8595;52.542;11.974;2024-02-21T14:08:10;11.60;99.90
16958;DHT22;8595;52.542;11.974;2024-02-21T14:10:37;11.70;99.90
16958;DHT22;8595;52.542;11.974;2024-02-21T14:13:06;11.70;99.90
16958;DHT22;8595;52.542;11.974;2024-02-21T14:15:32;11.90;99.90
16958;DHT22;8595;52.542;11.974;2024-02-21T14:17:59;12.10;99.90
16958;DHT22;8595;52.542;11.974;2024-02-21T14:20:26;12.20;99.90
16958;DHT22;8595;52.542;11.974;2024-02-21T14:22:53;12.30;99.90
16958;DHT22;8595;52.542;11.974;2024-02-21T14:25:19;12.30;99.90
16958;DHT22;8595;52.542;11.974;2024-02-21T14:27:46;12.30;99.90
16958;DHT22;8595;52.542;11.974;2024-02-21T14:30:14;12.30;99.90
16958;DHT22;8595;52.542;11.974;2024-02-21T14:32:44;12.30;99.90
16958;DHT22;8595;52.542;11.974;2024-02-21T14:35:11;12.10;99.90
16958;DHT22;8595;52.542;11.974;2024-02-21T14:37:37;12.10;99.90
16958;DHT22;8595;52.542;11.974;2024-02-21T14:40:05;12.10;99.90
16958;DHT22;8595;52.542;11.974;2024-02-21T14:42:32;12.10;99.90
16958;DHT22;8595;52.542;11.974;2024-02-21T14:44:59;12.10;99.90
16958;DHT22;8595;52.542;11.974;2024-02-21T14:47:30;12.10;99.90
16958;DHT22;8595;52.542;11.974;2024-02-21T14:49:57;12.00;99.90
16958;DHT22;8595;52.542;11.974;2024-02-21T14:52:24;11.90;99.90
16958;DHT22;8595;52.542;11.974;2024-02-21T14:54:53;11.80;99.90
16958;DHT22;8595;52.542;11.974;2024-02-21T14:57:20;11.80;99.90
16958;DHT22;8595;52.542;11.974;2024-02-21T14:59:46;11.80;99.90
16958;DHT22;8595;52.542;11.974;2024-02-21T15:02:15;11.80;99.90
16958;DHT22;8595;52.542;11.974;2024-02-21T15:04:43;11.80;99.90
16958;DHT22;8595;52.542;11.974;2024-02-21T15:07:10;11.70;99.90
16958;DHT22;8595;52.542;11.974;2024-02-21T15:09:36;11.70;99.90
16958;DHT22;8595;52.542;11.974;2024-02-21T15:12:03;11.50;99.90
16958;DHT22;8595;52.542;11.974;2024-02-21T15:14:31;11.40;99.90
16958;DHT22;8595;52.542;11.974;2024-02-21T15:16:58;11.40;99.90
16958;DHT22;8595;52.542;11.974;2024-02-21T15:19:25;11.40;99.90
16958;DHT22;8595;52.542;11.974;2024-02-21T15:21:53;11.40;99.90
16958;DHT22;8595;52.542;11.974;2024-02-21T15:24:20;11.40;99.90
16958;DHT22;8595;52.542;11.974;2024-02-21T15:26:46;11.50;99.90
16958;DHT22;8595;52.542;11.974;2024-02-21T15:29:13;11.50;99.90
16958;DHT22;8595;52.542;11.974;2024-02-21T15:31:40;11.50;99.90
16958;DHT22;8595;52.542;11.974;2024-02-21T15:34:13;11.40;99.90
16958;DHT22;8595;52.542;11.974;2024-02-21T15:36:41;11.30;99.90
16958;DHT22;8595;52.542;11.974;2024-02-21T15:39:09;11.30;99.90
16958;DHT22;8595;52.542;11.974;2024-02-21T15:41:36;11.20;99.90